createdAt,value
2018-07-19T00:00:04.945Z,20.72
2018-07-19T00:01:06.320Z,20.7
2018-07-19T00:02:05.274Z,20.74
2018-07-19T00:03:05.020Z,20.73
2018-07-19T00:04:06.407Z,20.64
2018-07-19T00:05:05.066Z,20.66
2018-07-19T00:06:05.365Z,20.67
2018-07-19T00:07:05.390Z,20.58
2018-07-19T00:08:05.963Z,20.57
2018-07-19T00:09:05.430Z,20.64
2018-07-19T00:10:05.452Z,20.59
2018-07-19T00:12:05.232Z,20.55
2018-07-19T00:13:05.521Z,20.48
2018-07-19T00:14:06.727Z,20.5
2018-07-19T00:15:05.308Z,20.51
2018-07-19T00:16:20.243Z,20.5
2018-07-19T00:17:05.346Z,20.47
2018-07-19T00:18:05.981Z,20.36
2018-07-19T00:19:06.009Z,20.42
2018-07-19T00:20:05.436Z,20.41
2018-07-19T00:21:05.730Z,20.41
2018-07-19T00:22:06.098Z,20.42
2018-07-19T00:23:05.761Z,20.42
2018-07-19T00:24:05.622Z,20.42
2018-07-19T00:25:07.052Z,20.42
2018-07-19T00:26:05.856Z,20.41
2018-07-19T00:27:20.521Z,20.38
2018-07-19T00:28:05.891Z,20.36
2018-07-19T00:30:05.686Z,20.33
2018-07-19T00:31:05.994Z,20.24
2018-07-19T00:32:05.722Z,20.29
2018-07-19T00:33:06.941Z,20.21
2018-07-19T00:34:06.150Z,20.18
2018-07-19T00:35:20.720Z,20.28
2018-07-19T00:36:06.292Z,20.18
2018-07-19T00:37:06.126Z,20.21
2018-07-19T00:38:20.518Z,20.23
2018-07-19T00:39:05.892Z,20.24
2018-07-19T00:40:07.073Z,20.17
2018-07-19T00:41:05.937Z,20.23
2018-07-19T00:42:06.237Z,20.16
2018-07-19T00:43:20.909Z,20.11
2018-07-19T00:44:21.491Z,20.2
2018-07-19T00:45:06.059Z,20.21
2018-07-19T00:46:06.161Z,20.24
2018-07-19T00:47:06.637Z,20.26
2018-07-19T00:48:06.376Z,20.13
2018-07-19T00:49:06.133Z,20.16
2018-07-19T00:50:06.202Z,20.13
2018-07-19T00:51:07.600Z,20.11
2018-07-19T00:52:05.943Z,20.08
2018-07-19T00:53:05.966Z,20.1
2018-07-19T00:54:06.524Z,20.06
2018-07-19T00:55:07.553Z,20.01
2018-07-19T00:56:06.319Z,20.1
2018-07-19T00:57:06.334Z,20.1
2018-07-19T00:58:21.269Z,20.02
2018-07-19T00:59:06.111Z,20.05
2018-07-19T01:00:06.411Z,19.96
2018-07-19T01:01:06.426Z,20.02
2018-07-19T01:02:06.184Z,19.96
2018-07-19T01:03:07.100Z,20.02
2018-07-19T01:04:06.499Z,20.02
2018-07-19T01:05:06.529Z,19.91
2018-07-19T01:06:07.234Z,19.88
2018-07-19T01:07:06.853Z,19.83
2018-07-19T01:08:06.883Z,19.88
2018-07-19T01:09:06.634Z,19.92
2018-07-19T01:10:06.381Z,19.81
2018-07-19T01:11:06.666Z,19.86
2018-07-19T01:12:06.965Z,19.84
2018-07-19T01:13:07.354Z,19.78
2018-07-19T01:14:06.483Z,19.74
2018-07-19T01:15:07.049Z,19.73
2018-07-19T01:16:06.787Z,19.74
2018-07-19T01:17:07.390Z,19.77
2018-07-19T01:18:21.770Z,19.74
2018-07-19T01:19:07.150Z,19.73
2018-07-19T01:20:07.426Z,19.81
2018-07-19T01:21:07.177Z,19.73
2018-07-19T01:22:06.936Z,19.66
2018-07-19T01:23:07.485Z,19.73
2018-07-19T01:24:07.262Z,19.74
2018-07-19T01:25:21.933Z,19.56
2018-07-19T01:26:08.359Z,19.71
2018-07-19T01:27:07.062Z,19.73
2018-07-19T01:28:07.349Z,19.59
2018-07-19T01:29:07.376Z,19.69
2018-07-19T01:30:22.695Z,19.68
2018-07-19T01:31:07.152Z,19.73
2018-07-19T01:32:07.441Z,19.69
2018-07-19T01:33:07.476Z,19.73
2018-07-19T01:34:08.571Z,19.59
2018-07-19T01:35:07.541Z,19.65
2018-07-19T01:36:07.272Z,19.55
2018-07-19T01:37:07.563Z,19.56
2018-07-19T01:38:07.885Z,19.63
2018-07-19T01:39:07.081Z,19.59
2018-07-19T01:40:07.393Z,19.65
2018-07-19T01:41:07.400Z,19.66
2018-07-19T01:42:08.850Z,19.68
2018-07-19T01:43:07.450Z,19.56
2018-07-19T01:44:07.201Z,19.56
2018-07-19T01:45:08.105Z,19.59
2018-07-19T01:46:22.170Z,19.58
2018-07-19T01:47:07.825Z,19.59
2018-07-19T01:48:08.127Z,19.58
2018-07-19T01:49:07.589Z,19.58
2018-07-19T01:50:07.628Z,19.59
2018-07-19T01:51:08.263Z,19.61
2018-07-19T01:52:07.947Z,19.58
2018-07-19T01:53:07.690Z,19.58
2018-07-19T01:54:09.127Z,19.61
2018-07-19T01:56:22.410Z,19.56
2018-07-19T01:57:08.263Z,19.66
2018-07-19T01:58:08.099Z,19.59
2018-07-19T01:59:07.933Z,19.61
2018-07-19T02:00:09.531Z,19.58
2018-07-19T02:01:07.883Z,19.48
2018-07-19T02:02:22.820Z,19.44
2018-07-19T02:03:07.925Z,19.48
2018-07-19T02:04:08.391Z,19.43
2018-07-19T02:05:08.254Z,19.5
2018-07-19T02:06:08.011Z,19.4
2018-07-19T02:07:09.378Z,19.37
2018-07-19T02:08:08.323Z,19.29
2018-07-19T02:09:08.350Z,19.28
2018-07-19T02:10:09.457Z,19.36
2018-07-19T02:11:08.123Z,19.32
2018-07-19T02:12:08.153Z,19.28
2018-07-19T02:13:08.996Z,19.26
2018-07-19T02:15:08.216Z,19.22
2018-07-19T02:16:08.245Z,19.19
2018-07-19T02:17:09.694Z,19.19
2018-07-19T02:19:08.317Z,19.19
2018-07-19T02:20:09.638Z,19.22
2018-07-19T02:21:08.094Z,19.19
2018-07-19T02:22:08.667Z,19.19
2018-07-19T02:23:09.006Z,19.14
2018-07-19T02:24:08.167Z,19.21
2018-07-19T02:25:08.452Z,19.11
2018-07-19T02:26:10.073Z,19.16
2018-07-19T02:27:08.780Z,19.13
2018-07-19T02:28:23.454Z,19.04
2018-07-19T02:29:09.232Z,19.13
2018-07-19T02:30:08.599Z,19.13
2018-07-19T02:31:08.899Z,19.19
2018-07-19T02:32:09.966Z,19.04
2018-07-19T02:33:24.115Z,19.08
2018-07-19T02:34:08.951Z,19.11
2018-07-19T02:35:10.017Z,19.14
2018-07-19T02:36:23.638Z,19.04
2018-07-19T02:38:08.780Z,19.07
2018-07-19T02:39:09.557Z,18.99
2018-07-19T02:40:09.090Z,19.04
2018-07-19T02:41:09.116Z,19.04
2018-07-19T02:42:10.185Z,19.04
2018-07-19T02:43:09.160Z,19.07
2018-07-19T02:44:08.923Z,19.04
2018-07-19T02:45:10.113Z,19
2018-07-19T02:46:08.965Z,19
2018-07-19T02:48:10.479Z,19.02
2018-07-19T02:49:09.298Z,18.88
2018-07-19T02:50:09.344Z,18.88
2018-07-19T02:51:09.345Z,18.92
2018-07-19T02:52:10.416Z,18.91
2018-07-19T02:53:09.389Z,18.92
2018-07-19T02:54:09.422Z,18.88
2018-07-19T02:55:09.842Z,18.92
2018-07-19T02:56:09.464Z,18.9
2018-07-19T02:57:09.230Z,18.85
2018-07-19T02:58:08.983Z,18.94
2018-07-19T03:00:09.031Z,18.85
2018-07-19T03:01:09.319Z,18.85
2018-07-19T03:02:10.861Z,18.81
2018-07-19T03:03:09.746Z,18.72
2018-07-19T03:04:09.676Z,18.76
2018-07-19T03:05:24.332Z,18.76
2018-07-19T03:06:09.718Z,18.75
2018-07-19T03:07:09.469Z,18.75
2018-07-19T03:08:10.601Z,18.76
2018-07-19T03:09:09.784Z,18.76
2018-07-19T03:10:09.818Z,18.75
2018-07-19T03:11:09.559Z,18.67
2018-07-19T03:12:09.849Z,18.69
2018-07-19T03:14:09.897Z,18.76
2018-07-19T03:15:10.203Z,18.7
2018-07-19T03:16:09.961Z,18.72
2018-07-19T03:17:09.969Z,18.7
2018-07-19T03:18:11.075Z,18.8
2018-07-19T03:19:09.749Z,18.66
2018-07-19T03:20:10.047Z,18.62
2018-07-19T03:21:24.720Z,18.75
2018-07-19T03:22:09.818Z,18.67
2018-07-19T03:24:10.832Z,18.82
2018-07-19T03:26:09.919Z,18.7
2018-07-19T03:27:10.200Z,18.62
2018-07-19T03:28:11.234Z,18.67
2018-07-19T03:29:10.267Z,18.58
2018-07-19T03:31:10.720Z,18.69
2018-07-19T03:32:10.073Z,18.67
2018-07-19T03:33:10.392Z,18.7
2018-07-19T03:34:11.631Z,18.75
2018-07-19T03:35:10.408Z,18.8
2018-07-19T03:36:10.155Z,18.73
2018-07-19T03:37:25.111Z,18.75
2018-07-19T03:38:10.200Z,18.67
2018-07-19T03:39:10.495Z,18.7
2018-07-19T03:41:10.543Z,18.67
2018-07-19T03:42:10.312Z,18.75
2018-07-19T03:43:10.332Z,18.85
2018-07-19T03:44:11.776Z,18.75
2018-07-19T03:45:10.648Z,18.76
2018-07-19T03:47:11.984Z,18.7
2018-07-19T03:48:10.446Z,18.73
2018-07-19T03:49:10.745Z,18.73
2018-07-19T03:50:11.929Z,18.73
2018-07-19T03:51:25.437Z,18.81
2018-07-19T03:52:10.565Z,18.85
2018-07-19T03:53:25.645Z,18.87
2018-07-19T03:55:10.894Z,18.84
2018-07-19T03:56:12.148Z,18.84
2018-07-19T03:57:10.393Z,18.85
2018-07-19T03:58:10.685Z,18.8
2018-07-19T03:59:12.122Z,18.91
2018-07-19T04:00:11.000Z,18.9
2018-07-19T04:01:10.770Z,18.92
2018-07-19T04:02:11.344Z,18.9
2018-07-19T04:03:10.802Z,18.95
2018-07-19T04:04:11.137Z,18.88
2018-07-19T04:05:10.853Z,18.91
2018-07-19T04:06:10.884Z,18.88
2018-07-19T04:07:11.170Z,18.98
2018-07-19T04:08:25.839Z,18.94
2018-07-19T04:09:12.199Z,18.99
2018-07-19T04:10:11.255Z,18.98
2018-07-19T04:11:11.267Z,19.08
2018-07-19T04:12:11.895Z,19.1
2018-07-19T04:13:11.049Z,19.1
2018-07-19T04:14:11.336Z,19.08
2018-07-19T04:15:11.377Z,19.16
2018-07-19T04:16:11.710Z,19.16
2018-07-19T04:17:11.684Z,19.18
2018-07-19T04:18:11.471Z,19.26
2018-07-19T04:19:11.625Z,19.43
2018-07-19T04:20:10.950Z,19.66
2018-07-19T04:21:26.158Z,19.69
2018-07-19T04:22:11.525Z,19.8
2018-07-19T04:23:11.891Z,19.55
2018-07-19T04:25:12.028Z,19.71
2018-07-19T04:26:26.816Z,19.73
2018-07-19T04:27:11.653Z,19.59
2018-07-19T04:28:11.670Z,19.61
2018-07-19T04:29:11.705Z,19.44
2018-07-19T04:30:12.907Z,19.44
2018-07-19T04:31:11.755Z,19.46
2018-07-19T04:32:11.506Z,19.43
2018-07-19T04:33:13.061Z,19.55
2018-07-19T04:34:11.830Z,19.66
2018-07-19T04:36:11.877Z,19.77
2018-07-19T04:37:27.011Z,19.76
2018-07-19T04:38:12.054Z,19.8
2018-07-19T04:39:11.932Z,19.69
2018-07-19T04:40:26.613Z,19.71
2018-07-19T04:41:11.989Z,19.78
2018-07-19T04:42:12.018Z,19.77
2018-07-19T04:43:11.776Z,19.74
2018-07-19T04:44:13.187Z,19.8
2018-07-19T04:45:12.097Z,19.96
2018-07-19T04:46:12.126Z,20.42
2018-07-19T04:47:12.190Z,20.7
2018-07-19T04:48:11.966Z,20.91
2018-07-19T04:49:12.199Z,21.42
2018-07-19T04:51:12.234Z,22.46
2018-07-19T04:52:12.001Z,22.72
2018-07-19T04:53:12.294Z,23.05
2018-07-19T04:54:13.223Z,23.43
2018-07-19T04:55:12.072Z,24.03
2018-07-19T04:56:27.014Z,24.16
2018-07-19T04:57:13.607Z,24.52
2018-07-19T04:58:12.153Z,24.58
2018-07-19T04:59:12.170Z,24.55
2018-07-19T05:00:13.052Z,24.61
2018-07-19T05:01:12.519Z,25.05
2018-07-19T05:02:12.680Z,25.21
2018-07-19T05:03:12.278Z,25.33
2018-07-19T05:04:13.617Z,25.64
2018-07-19T05:05:12.603Z,25.85
2018-07-19T05:07:12.407Z,26.55
2018-07-19T05:08:12.698Z,26.77
2018-07-19T05:09:12.729Z,26.62
2018-07-19T05:10:12.481Z,26.92
2018-07-19T05:11:14.100Z,27.1
2018-07-19T05:12:27.457Z,27.28
2018-07-19T05:13:12.569Z,27.27
2018-07-19T05:14:14.106Z,27.43
2018-07-19T05:15:12.896Z,27.46
2018-07-19T05:16:12.923Z,27.85
2018-07-19T05:17:12.686Z,28.52
2018-07-19T05:18:13.900Z,28.54
2018-07-19T05:20:13.058Z,28.4
2018-07-19T05:21:13.076Z,27.63
2018-07-19T05:22:13.952Z,27.55
2018-07-19T05:23:13.361Z,27.7
2018-07-19T05:24:13.169Z,27.34
2018-07-19T05:25:13.363Z,26.97
2018-07-19T05:26:12.960Z,26.58
2018-07-19T05:27:12.991Z,26.91
2018-07-19T05:29:13.721Z,27.47
2018-07-19T05:30:12.819Z,27.85
2018-07-19T05:31:13.401Z,28.24
2018-07-19T05:32:14.512Z,28.14
2018-07-19T05:33:13.440Z,27.75
2018-07-19T05:34:28.145Z,27.77
2018-07-19T05:35:14.644Z,27.7
2018-07-19T05:36:13.564Z,27.74
2018-07-19T05:37:13.303Z,27.67
2018-07-19T05:38:13.343Z,27.96
2018-07-19T05:39:13.649Z,28.09
2018-07-19T05:40:13.667Z,28.27
2018-07-19T05:41:13.712Z,28.68
2018-07-19T05:42:14.802Z,29.06
2018-07-19T05:43:28.792Z,28.4
2018-07-19T05:44:13.543Z,27.81
2018-07-19T05:45:13.831Z,28.21
2018-07-19T05:46:13.900Z,29.15
2018-07-19T05:47:14.389Z,28.95
2018-07-19T05:48:28.592Z,28.55
2018-07-19T05:49:13.952Z,28.36
2018-07-19T05:50:14.196Z,28.43
2018-07-19T05:51:13.756Z,28.89
2018-07-19T05:52:14.059Z,29
2018-07-19T05:53:14.180Z,28.76
2018-07-19T05:54:14.137Z,28.24
2018-07-19T05:55:14.157Z,28.17
2018-07-19T05:56:14.181Z,27.84
2018-07-19T05:57:15.539Z,28.15
2018-07-19T05:58:14.492Z,27.85
2018-07-19T05:59:14.300Z,27.74
2018-07-19T06:00:15.533Z,27.59
2018-07-19T06:01:14.354Z,27.5
2018-07-19T06:02:14.382Z,27.41
2018-07-19T06:03:15.528Z,26.91
2018-07-19T06:04:14.459Z,26.65
2018-07-19T06:05:14.215Z,26.35
2018-07-19T06:06:15.547Z,26.3
2018-07-19T06:07:14.548Z,27.25
2018-07-19T06:08:14.044Z,27.72
2018-07-19T06:09:15.281Z,27.92
2018-07-19T06:10:14.389Z,28.22
2018-07-19T06:11:14.682Z,28.25
2018-07-19T06:12:14.450Z,28.07
2018-07-19T06:13:14.903Z,27.72
2018-07-19T06:14:14.599Z,28.52
2018-07-19T06:15:29.459Z,29.67
2018-07-19T06:16:29.553Z,29.06
2018-07-19T06:17:29.528Z,28.71
2018-07-19T06:18:15.243Z,28.44
2018-07-19T06:19:14.677Z,28.3
2018-07-19T06:20:14.977Z,28.43
2018-07-19T06:21:15.993Z,27.55
2018-07-19T06:22:14.782Z,27.29
2018-07-19T06:23:15.116Z,26.89
2018-07-19T06:24:15.497Z,27.31
2018-07-19T06:25:15.234Z,27.36
2018-07-19T06:26:14.915Z,27.62
2018-07-19T06:27:15.777Z,28.39
2018-07-19T06:28:29.905Z,29.16
2018-07-19T06:29:15.296Z,29.73
2018-07-19T06:30:15.430Z,30.42
2018-07-19T06:31:30.065Z,31.09
2018-07-19T06:32:15.379Z,31.35
2018-07-19T06:33:16.057Z,31.31
2018-07-19T06:34:15.436Z,31.89
2018-07-19T06:35:15.477Z,31.04
2018-07-19T06:36:15.517Z,29.76
2018-07-19T06:37:15.561Z,29.16
2018-07-19T06:38:15.301Z,28.68
2018-07-19T06:39:15.344Z,28.11
2018-07-19T06:40:15.385Z,27.59
2018-07-19T06:41:30.049Z,26.06
2018-07-19T06:44:15.506Z,26.29
2018-07-19T06:45:15.812Z,26.18
2018-07-19T06:46:15.565Z,26.21
2018-07-19T06:47:30.500Z,26.05
2018-07-19T06:48:16.970Z,25.82
2018-07-19T06:49:15.961Z,25.7
2018-07-19T06:50:15.948Z,25.58
2018-07-19T06:51:17.056Z,25.69
2018-07-19T06:52:16.073Z,25.32
2018-07-19T06:53:16.030Z,25.3
2018-07-19T06:54:16.923Z,25.36
2018-07-19T06:55:16.093Z,25.21
2018-07-19T06:56:16.126Z,25.21
2018-07-19T06:57:17.341Z,25.32
2018-07-19T06:58:16.192Z,25.47
2018-07-19T06:59:16.243Z,25.13
2018-07-19T07:00:16.233Z,25.21
2018-07-19T07:01:16.822Z,24.83
2018-07-19T07:02:16.313Z,24.49
2018-07-19T07:04:17.449Z,24.35
2018-07-19T07:05:16.413Z,24.39
2018-07-19T07:07:16.753Z,24.02
2018-07-19T07:08:16.217Z,23.91
2018-07-19T07:09:31.255Z,24.24
2018-07-19T07:10:17.502Z,24.21
2018-07-19T07:11:16.546Z,24.27
2018-07-19T07:12:16.577Z,24.24
2018-07-19T07:13:17.157Z,24.08
2018-07-19T07:14:16.375Z,24.03
2018-07-19T07:15:16.665Z,23.84
2018-07-19T07:16:16.984Z,23.95
2018-07-19T07:17:16.737Z,23.79
2018-07-19T07:18:31.396Z,23.51
2018-07-19T07:19:16.507Z,23.55
2018-07-19T07:20:16.269Z,23.53
2018-07-19T07:21:17.073Z,23.53
2018-07-19T07:22:16.591Z,23.57
2018-07-19T07:23:17.976Z,23.2
2018-07-19T07:24:16.930Z,23.28
2018-07-19T07:25:16.950Z,23.33
2018-07-19T07:26:18.135Z,23.47
2018-07-19T07:27:16.987Z,23.42
2018-07-19T07:28:17.196Z,23.43
2018-07-19T07:29:17.950Z,23.55
2018-07-19T07:31:16.833Z,23.72
2018-07-19T07:32:18.249Z,23.46
2018-07-19T07:33:17.162Z,23.58
2018-07-19T07:34:16.644Z,23.48
2018-07-19T07:35:17.209Z,23.31
2018-07-19T07:37:17.273Z,23.33
2018-07-19T07:38:18.295Z,23.35
2018-07-19T07:39:17.327Z,23.33
2018-07-19T07:40:17.356Z,22.95
2018-07-19T07:41:18.216Z,22.94
2018-07-19T07:42:17.445Z,22.98
2018-07-19T07:43:17.467Z,23.01
2018-07-19T07:44:18.812Z,23.27
2018-07-19T07:45:17.500Z,23.47
2018-07-19T07:46:17.527Z,23.38
2018-07-19T07:47:18.093Z,23.31
2018-07-19T07:48:17.289Z,23.17
2018-07-19T07:49:17.579Z,22.92
2018-07-19T07:50:32.260Z,22.94
2018-07-19T07:51:18.868Z,22.95
2018-07-19T07:52:32.305Z,22.92
2018-07-19T07:53:17.689Z,22.95
2018-07-19T07:54:18.747Z,23.09
2018-07-19T07:55:17.472Z,23.33
2018-07-19T07:56:17.770Z,23.6
2018-07-19T07:57:18.662Z,23.57
2018-07-19T07:58:17.810Z,23.51
2018-07-19T07:59:18.036Z,23.36
2018-07-19T08:00:17.602Z,23.28
2018-07-19T08:01:19.180Z,22.98
2018-07-19T08:02:17.907Z,22.94
2018-07-19T08:03:17.939Z,22.95
2018-07-19T08:04:17.696Z,23.02
2018-07-19T08:05:18.097Z,22.92
2018-07-19T08:06:32.672Z,22.8
2018-07-19T08:07:18.176Z,22.65
2018-07-19T08:10:17.862Z,22.67
2018-07-19T08:11:33.407Z,22.73
2018-07-19T08:12:18.176Z,22.75
2018-07-19T08:13:19.398Z,22.62
2018-07-19T08:15:18.258Z,22.51
2018-07-19T08:17:18.306Z,22.54
2018-07-19T08:18:18.341Z,22.58
2018-07-19T08:19:18.701Z,22.61
2018-07-19T08:20:18.112Z,22.58
2018-07-19T08:22:33.105Z,22.57
2018-07-19T08:23:18.464Z,22.52
2018-07-19T08:24:18.488Z,22.68
2018-07-19T08:25:17.980Z,22.72
2018-07-19T08:26:18.268Z,22.57
2018-07-19T08:27:18.561Z,22.72
2018-07-19T08:28:18.590Z,22.52
2018-07-19T08:29:19.697Z,22.65
2018-07-19T08:30:18.654Z,22.73
2018-07-19T08:31:18.680Z,22.72
2018-07-19T08:32:33.080Z,22.72
2018-07-19T08:33:33.376Z,22.75
2018-07-19T08:34:18.480Z,22.79
2018-07-19T08:35:19.656Z,22.7
2018-07-19T08:36:18.929Z,22.73
2018-07-19T08:37:18.814Z,22.67
2018-07-19T08:38:33.515Z,22.61
2018-07-19T08:39:33.556Z,22.72
2018-07-19T08:40:18.629Z,22.79
2018-07-19T08:41:19.388Z,22.65
2018-07-19T08:42:18.683Z,22.65
2018-07-19T08:43:18.973Z,22.52
2018-07-19T08:45:18.767Z,22.37
2018-07-19T08:47:18.807Z,22.4
2018-07-19T08:48:19.380Z,22.37
2018-07-19T08:49:19.120Z,22.45
2018-07-19T08:50:19.152Z,22.54
2018-07-19T08:51:19.457Z,22.7
2018-07-19T08:52:19.220Z,22.58
2018-07-19T08:53:33.617Z,22.45
2018-07-19T08:55:19.302Z,22.17
2018-07-19T08:56:18.777Z,21.92
2018-07-19T08:57:20.281Z,21.75
2018-07-19T08:58:19.388Z,21.71
2018-07-19T08:59:19.388Z,21.72
2018-07-19T09:01:19.172Z,21.74
2018-07-19T09:02:19.644Z,21.71
2018-07-19T09:03:20.064Z,21.65
2018-07-19T09:04:19.511Z,21.8
2018-07-19T09:05:19.539Z,21.88
2018-07-19T09:06:19.555Z,21.94
2018-07-19T09:07:19.985Z,21.99
2018-07-19T09:08:19.629Z,21.84
2018-07-19T09:09:19.382Z,21.83
2018-07-19T09:10:20.813Z,21.9
2018-07-19T09:11:19.701Z,21.92
2018-07-19T09:12:19.722Z,21.99
2018-07-19T09:13:19.748Z,22.06
2018-07-19T09:14:19.824Z,22.05
2018-07-19T09:15:19.804Z,21.98
2018-07-19T09:16:19.837Z,22.12
2018-07-19T09:17:20.955Z,22.05
2018-07-19T09:18:19.868Z,22
2018-07-19T09:19:34.374Z,21.99
2018-07-19T09:20:19.764Z,22.07
2018-07-19T09:21:20.220Z,22.07
2018-07-19T09:22:19.994Z,22.22
2018-07-19T09:23:20.009Z,22.25
2018-07-19T09:24:21.007Z,22.07
2018-07-19T09:25:35.251Z,22.12
2018-07-19T09:26:20.077Z,22.2
2018-07-19T09:27:20.125Z,22.28
2018-07-19T09:28:21.317Z,22.28
2018-07-19T09:29:20.143Z,22.27
2018-07-19T09:30:20.188Z,22.47
2018-07-19T09:31:21.233Z,22.61
2018-07-19T09:32:19.971Z,22.58
2018-07-19T09:33:19.717Z,22.62
2018-07-19T09:34:20.674Z,22.58
2018-07-19T09:35:20.329Z,22.65
2018-07-19T09:36:20.333Z,22.72
2018-07-19T09:37:20.352Z,22.75
2018-07-19T09:38:21.619Z,22.61
2018-07-19T09:39:20.152Z,22.73
2018-07-19T09:40:20.441Z,22.76
2018-07-19T09:41:35.114Z,22.9
2018-07-19T09:42:20.497Z,22.98
2018-07-19T09:43:20.548Z,22.94
2018-07-19T09:44:20.274Z,22.91
2018-07-19T09:45:21.691Z,22.95
2018-07-19T09:46:35.231Z,22.85
2018-07-19T09:47:20.344Z,22.85
2018-07-19T09:48:21.590Z,23.02
2018-07-19T09:49:20.666Z,23.04
2018-07-19T09:50:20.414Z,23.05
2018-07-19T09:51:21.242Z,23.12
2018-07-19T09:52:20.475Z,23.05
2018-07-19T09:53:20.760Z,23.15
2018-07-19T09:54:20.798Z,23.12
2018-07-19T09:55:21.845Z,23.15
2018-07-19T09:56:20.833Z,23.1
2018-07-19T09:57:35.522Z,23.04
2018-07-19T09:58:21.947Z,22.94
2018-07-19T09:59:20.946Z,23.15
2018-07-19T10:00:20.947Z,23.19
2018-07-19T10:01:20.698Z,23.28
2018-07-19T10:02:21.557Z,23.28
2018-07-19T10:03:21.015Z,23.25
2018-07-19T10:04:20.787Z,23.33
2018-07-19T10:06:20.837Z,23.36
2018-07-19T10:07:21.129Z,23.43
2018-07-19T10:08:35.802Z,23.47
2018-07-19T10:09:21.454Z,23.54
2018-07-19T10:10:21.496Z,23.55
2018-07-19T10:11:35.879Z,23.58
2018-07-19T10:12:21.911Z,23.47
2018-07-19T10:13:36.456Z,23.6
2018-07-19T10:14:21.292Z,23.55
2018-07-19T10:15:21.342Z,23.68
2018-07-19T10:16:22.261Z,23.76
2018-07-19T10:17:21.539Z,23.88
2018-07-19T10:18:21.147Z,24.03
2018-07-19T10:19:21.429Z,24
2018-07-19T10:20:21.617Z,24.06
2018-07-19T10:21:21.479Z,24.06
2018-07-19T10:22:21.245Z,24.13
2018-07-19T10:23:22.456Z,23.95
2018-07-19T10:24:21.731Z,23.95
2018-07-19T10:25:21.592Z,24.06
2018-07-19T10:26:21.614Z,24.15
2018-07-19T10:27:21.785Z,23.94
2018-07-19T10:28:37.131Z,24.03
2018-07-19T10:29:21.155Z,23.85
2018-07-19T10:30:21.464Z,23.85
2018-07-19T10:31:36.388Z,23.84
2018-07-19T10:32:22.355Z,23.75
2018-07-19T10:33:21.786Z,23.76
2018-07-19T10:34:22.949Z,23.9
2018-07-19T10:35:21.857Z,23.93
2018-07-19T10:36:21.610Z,23.98
2018-07-19T10:37:21.913Z,24
2018-07-19T10:38:37.171Z,23.9
2018-07-19T10:39:21.963Z,23.88
2018-07-19T10:40:21.967Z,23.98
2018-07-19T10:41:21.998Z,24.16
2018-07-19T10:42:23.218Z,24.49
2018-07-19T10:44:22.282Z,24.52
2018-07-19T10:45:21.831Z,24.62
2018-07-19T10:47:21.627Z,24.67
2018-07-19T10:48:21.907Z,24.58
2018-07-19T10:49:22.188Z,24.43
2018-07-19T10:50:22.220Z,24.34
2018-07-19T10:51:22.239Z,24.4
2018-07-19T10:52:22.273Z,24.2
2018-07-19T10:53:22.305Z,24.32
2018-07-19T10:54:22.059Z,24.32
2018-07-19T10:55:22.344Z,24.49
2018-07-19T10:56:22.378Z,24.47
2018-07-19T10:57:22.497Z,24.53
2018-07-19T10:58:22.424Z,24.61
2018-07-19T10:59:22.447Z,24.81
2018-07-19T11:00:37.141Z,24.64
2018-07-19T11:01:22.507Z,24.4
2018-07-19T11:02:22.532Z,24.32
2018-07-19T11:03:22.553Z,24.4
2018-07-19T11:04:22.576Z,24.42
2018-07-19T11:05:37.269Z,24.6
2018-07-19T11:06:22.630Z,24.68
2018-07-19T11:07:22.662Z,24.64
2018-07-19T11:08:22.680Z,24.57
2018-07-19T11:09:22.744Z,24.58
2018-07-19T11:10:22.742Z,24.57
2018-07-19T11:11:22.507Z,24.65
2018-07-19T11:12:22.533Z,24.52
2018-07-19T11:13:22.812Z,24.49
2018-07-19T11:14:22.843Z,24.3
2018-07-19T11:16:37.297Z,24.09
2018-07-19T11:17:22.657Z,24.18
2018-07-19T11:18:22.943Z,24.32
2018-07-19T11:19:23.070Z,24.25
2018-07-19T11:20:22.992Z,24.3
2018-07-19T11:21:23.024Z,24.03
2018-07-19T11:22:23.052Z,24.02
2018-07-19T11:23:23.114Z,24.15
2018-07-19T11:24:23.103Z,24.13
2018-07-19T11:25:22.871Z,24.18
2018-07-19T11:26:37.814Z,24.1
2018-07-19T11:27:23.178Z,24.16
2018-07-19T11:28:23.098Z,24.13
2018-07-19T11:29:23.234Z,24.12
2018-07-19T11:30:23.001Z,24.16
2018-07-19T11:31:23.283Z,24.1
2018-07-19T11:32:37.970Z,24.13
2018-07-19T11:33:23.332Z,24.03
2018-07-19T11:34:23.364Z,23.88
2018-07-19T11:35:23.516Z,23.95
2018-07-19T11:36:23.415Z,23.75
2018-07-19T11:37:38.104Z,23.58
2018-07-19T11:38:23.213Z,23.54
2018-07-19T11:39:23.487Z,23.54
2018-07-19T11:40:23.515Z,23.55
2018-07-19T11:41:23.540Z,23.69
2018-07-19T11:42:23.308Z,23.63
2018-07-19T11:43:23.595Z,23.55
2018-07-19T11:44:23.619Z,23.58
2018-07-19T11:46:23.670Z,23.79
2018-07-19T11:47:23.694Z,23.93
2018-07-19T11:48:38.383Z,23.91
2018-07-19T11:50:23.772Z,23.9
2018-07-19T11:51:23.805Z,23.91
2018-07-19T11:52:23.825Z,24.03
2018-07-19T11:53:23.600Z,24.1
2018-07-19T11:54:23.889Z,24.1
2018-07-19T11:55:23.900Z,24.1
2018-07-19T11:56:23.929Z,24.15
2018-07-19T11:57:23.953Z,23.88
2018-07-19T11:58:23.984Z,23.78
2018-07-19T12:00:24.037Z,23.72
2018-07-19T12:01:23.803Z,23.61
2018-07-19T12:02:24.084Z,23.72
2018-07-19T12:03:38.773Z,23.68
2018-07-19T12:04:24.139Z,23.79
2018-07-19T12:06:24.188Z,23.93
2018-07-19T12:07:24.223Z,23.87
2018-07-19T12:08:24.239Z,23.94
2018-07-19T12:09:24.272Z,23.94
2018-07-19T12:10:24.294Z,23.87
2018-07-19T12:11:24.063Z,23.9
2018-07-19T12:12:24.099Z,23.88
2018-07-19T12:13:38.771Z,23.79
2018-07-19T12:14:24.399Z,23.85
2018-07-19T12:15:24.420Z,23.7
2018-07-19T12:16:24.459Z,23.55
2018-07-19T12:17:24.470Z,23.54
2018-07-19T12:18:24.502Z,23.6
2018-07-19T12:19:24.520Z,23.53
2018-07-19T12:20:24.289Z,23.43
2018-07-19T12:21:24.578Z,23.07
2018-07-19T12:22:24.087Z,23.19
2018-07-19T12:23:24.627Z,23.28
2018-07-19T12:24:24.714Z,23.19
2018-07-19T12:25:24.422Z,23.17
2018-07-19T12:26:24.703Z,23.12
2018-07-19T12:27:24.731Z,23.05
2018-07-19T12:28:24.498Z,22.95
2018-07-19T12:29:24.785Z,22.94
2018-07-19T12:30:39.467Z,22.85
2018-07-19T12:31:25.076Z,22.75
2018-07-19T12:32:24.861Z,22.68
2018-07-19T12:33:24.894Z,22.51
2018-07-19T12:34:24.954Z,22.4
2018-07-19T12:35:39.598Z,22.22
2018-07-19T12:36:24.449Z,22.15
2018-07-19T12:37:24.987Z,22.28
2018-07-19T12:38:25.019Z,22.3
2018-07-19T12:39:25.044Z,22.27
2018-07-19T12:40:25.075Z,22.31
2018-07-19T12:41:25.092Z,22.36
2018-07-19T12:42:25.115Z,22.3
2018-07-19T12:43:39.803Z,22.55
2018-07-19T12:44:24.911Z,22.65
2018-07-19T12:45:39.599Z,22.65
2018-07-19T12:46:24.990Z,22.67
2018-07-19T12:47:24.730Z,22.82
2018-07-19T12:49:25.043Z,23
2018-07-19T12:50:25.324Z,23.04
2018-07-19T12:51:40.053Z,23.12
2018-07-19T12:53:25.412Z,23.15
2018-07-19T12:56:25.480Z,23.25
2018-07-19T12:57:25.248Z,23.32
2018-07-19T12:58:25.532Z,23.47
2018-07-19T12:59:40.219Z,23.53
2018-07-19T13:00:25.646Z,23.54
2018-07-19T13:01:40.014Z,23.31
2018-07-19T13:02:25.634Z,22.98
2018-07-19T13:03:25.417Z,23
2018-07-19T13:04:25.683Z,23.04
2018-07-19T13:05:25.485Z,23.04
2018-07-19T13:06:25.744Z,23.19
2018-07-19T13:07:40.167Z,23
2018-07-19T13:08:25.795Z,23.05
2018-07-19T13:09:25.555Z,23.23
2018-07-19T13:10:25.842Z,23.39
2018-07-19T13:12:25.894Z,23.46
2018-07-19T13:13:25.403Z,23.4
2018-07-19T13:14:25.692Z,23.43
2018-07-19T13:15:25.970Z,23.51
2018-07-19T13:16:25.997Z,23.46
2018-07-19T13:17:26.026Z,23.47
2018-07-19T13:18:26.059Z,23.54
2018-07-19T13:19:26.074Z,23.68
2018-07-19T13:20:26.157Z,23.54
2018-07-19T13:21:25.870Z,23.57
2018-07-19T13:22:26.153Z,23.57
2018-07-19T13:23:40.841Z,23.65
2018-07-19T13:24:26.201Z,23.69
2018-07-19T13:26:26.255Z,23.8
2018-07-19T13:27:26.287Z,23.75
2018-07-19T13:28:26.055Z,23.9
2018-07-19T13:29:26.331Z,23.73
2018-07-19T13:30:41.022Z,23.55
2018-07-19T13:31:26.385Z,23.78
2018-07-19T13:32:26.155Z,23.78
2018-07-19T13:33:26.442Z,23.95
2018-07-19T13:34:26.464Z,24.18
2018-07-19T13:35:26.488Z,24.37
2018-07-19T13:36:26.577Z,24.4
2018-07-19T13:37:26.302Z,24.62
2018-07-19T13:38:41.231Z,24.88
2018-07-19T13:39:26.340Z,25.02
2018-07-19T13:40:26.627Z,25.17
2018-07-19T13:42:26.417Z,25.23
2018-07-19T13:43:26.705Z,25.28
2018-07-19T13:44:26.726Z,25.33
2018-07-19T13:45:26.754Z,25.36
2018-07-19T13:46:26.782Z,25.25